sensor_id;sensor_type;location;lat;lon;timestamp;pressure;altitude;pressure_sealevel;temperature;humidity
53659;BME280;41524;35.624;139.698;2023-08-06T00:00:12;100285.00;;;27.63;59.06
53659;BME280;41524;35.624;139.698;2023-08-06T00:05:11;100290.00;;;27.87;58.54
53659;BME280;41524;35.624;139.698;2023-08-06T00:10:12;100295.00;;;29.07;56.10
53659;BME280;41524;35.624;139.698;2023-08-06T00:15:11;100309.00;;;29.18;58.54
53659;BME280;41524;35.624;139.698;2023-08-06T00:20:11;100317.00;;;29.01;58.42
53659;BME280;41524;35.624;139.698;2023-08-06T00:25:11;100319.00;;;28.85;57.63
53659;BME280;41524;35.624;139.698;2023-08-06T00:30:11;100313.00;;;28.70;56.21
53659;BME280;41524;35.624;139.698;2023-08-06T00:35:11;100309.00;;;29.38;55.53
53659;BME280;41524;35.624;139.698;2023-08-06T00:40:10;100310.00;;;28.97;55.03
53659;BME280;41524;35.624;139.698;2023-08-06T00:45:11;100303.00;;;29.54;53.15
53659;BME280;41524;35.624;139.698;2023-08-06T00:50:12;100308.00;;;28.71;55.38
53659;BME280;41524;35.624;139.698;2023-08-06T00:55:11;100313.00;;;27.36;57.65
53659;BME280;41524;35.624;139.698;2023-08-06T01:00:12;100307.00;;;28.76;55.87
53659;BME280;41524;35.624;139.698;2023-08-06T01:05:10;100305.00;;;29.66;55.48
53659;BME280;41524;35.624;139.698;2023-08-06T01:10:22;100307.00;;;28.69;56.90
53659;BME280;41524;35.624;139.698;2023-08-06T01:15:18;100304.00;;;29.26;55.36
53659;BME280;41524;35.624;139.698;2023-08-06T01:20:11;100300.00;;;29.43;55.75
53659;BME280;41524;35.624;139.698;2023-08-06T01:25:11;100292.00;;;28.79;56.06
53659;BME280;41524;35.624;139.698;2023-08-06T01:30:15;100298.00;;;29.96;54.06
53659;BME280;41524;35.624;139.698;2023-08-06T01:35:12;100292.00;;;28.98;56.10
53659;BME280;41524;35.624;139.698;2023-08-06T01:40:12;100289.00;;;29.20;56.45
53659;BME280;41524;35.624;139.698;2023-08-06T01:45:11;100282.00;;;28.84;57.24
53659;BME280;41524;35.624;139.698;2023-08-06T01:50:11;100276.00;;;29.86;53.91
53659;BME280;41524;35.624;139.698;2023-08-06T01:55:11;100276.00;;;29.31;54.66
53659;BME280;41524;35.624;139.698;2023-08-06T02:00:12;100265.00;;;29.88;53.68
53659;BME280;41524;35.624;139.698;2023-08-06T02:05:11;100256.00;;;29.70;53.95
53659;BME280;41524;35.624;139.698;2023-08-06T02:10:11;100259.00;;;29.05;54.59
53659;BME280;41524;35.624;139.698;2023-08-06T02:15:10;100248.00;;;28.81;56.28
53659;BME280;41524;35.624;139.698;2023-08-06T02:20:11;100241.00;;;30.92;53.07
53659;BME280;41524;35.624;139.698;2023-08-06T02:25:11;100242.00;;;31.04;53.25
53659;BME280;41524;35.624;139.698;2023-08-06T02:30:11;100237.00;;;29.05;55.98
53659;BME280;41524;35.624;139.698;2023-08-06T02:35:12;100234.00;;;28.92;55.97
53659;BME280;41524;35.624;139.698;2023-08-06T02:40:11;100222.00;;;28.98;56.15
53659;BME280;41524;35.624;139.698;2023-08-06T02:45:11;100210.00;;;30.55;54.38
53659;BME280;41524;35.624;139.698;2023-08-06T02:50:12;100206.00;;;30.19;53.98
53659;BME280;41524;35.624;139.698;2023-08-06T02:55:11;100205.00;;;30.69;52.36
53659;BME280;41524;35.624;139.698;2023-08-06T03:00:10;100201.00;;;29.66;54.54
53659;BME280;41524;35.624;139.698;2023-08-06T03:05:11;100201.00;;;29.69;54.34
53659;BME280;41524;35.624;139.698;2023-08-06T03:10:18;100199.00;;;28.31;56.97
53659;BME280;41524;35.624;139.698;2023-08-06T03:15:11;100193.00;;;30.17;53.71
53659;BME280;41524;35.624;139.698;2023-08-06T03:20:12;100208.00;;;29.59;55.20
53659;BME280;41524;35.624;139.698;2023-08-06T03:25:11;100216.00;;;28.10;59.53
53659;BME280;41524;35.624;139.698;2023-08-06T03:30:11;100210.00;;;27.53;60.59
53659;BME280;41524;35.624;139.698;2023-08-06T03:35:12;100206.00;;;27.90;59.38
53659;BME280;41524;35.624;139.698;2023-08-06T03:40:12;100197.00;;;28.42;58.28
53659;BME280;41524;35.624;139.698;2023-08-06T03:45:12;100189.00;;;28.41;58.26
53659;BME280;41524;35.624;139.698;2023-08-06T03:50:11;100189.00;;;29.72;55.27
53659;BME280;41524;35.624;139.698;2023-08-06T03:55:10;100179.00;;;29.48;55.64
53659;BME280;41524;35.624;139.698;2023-08-06T04:00:12;100176.00;;;28.56;58.13
53659;BME280;41524;35.624;139.698;2023-08-06T04:05:10;100169.00;;;29.31;55.72
53659;BME280;41524;35.624;139.698;2023-08-06T04:10:11;100167.00;;;28.39;56.91
53659;BME280;41524;35.624;139.698;2023-08-06T04:15:11;100171.00;;;28.33;58.04
53659;BME280;41524;35.624;139.698;2023-08-06T04:20:11;100160.00;;;28.65;59.77
53659;BME280;41524;35.624;139.698;2023-08-06T04:25:11;100168.00;;;27.47;62.04
53659;BME280;41524;35.624;139.698;2023-08-06T04:30:11;100160.00;;;28.46;60.33
53659;BME280;41524;35.624;139.698;2023-08-06T04:35:12;100149.00;;;28.75;59.50
53659;BME280;41524;35.624;139.698;2023-08-06T04:40:12;100147.00;;;29.60;57.89
53659;BME280;41524;35.624;139.698;2023-08-06T04:45:11;100137.00;;;29.51;59.16
53659;BME280;41524;35.624;139.698;2023-08-06T04:50:12;100140.00;;;28.50;61.31
53659;BME280;41524;35.624;139.698;2023-08-06T04:55:11;100136.00;;;29.41;57.93
53659;BME280;41524;35.624;139.698;2023-08-06T05:00:11;100142.00;;;29.21;57.34
53659;BME280;41524;35.624;139.698;2023-08-06T05:05:12;100131.00;;;30.56;53.77
53659;BME280;41524;35.624;139.698;2023-08-06T05:10:10;100122.00;;;29.21;55.26
53659;BME280;41524;35.624;139.698;2023-08-06T05:15:12;100120.00;;;29.01;56.25
53659;BME280;41524;35.624;139.698;2023-08-06T05:20:11;100116.00;;;30.26;54.06
53659;BME280;41524;35.624;139.698;2023-08-06T05:25:14;100117.00;;;29.49;54.14
53659;BME280;41524;35.624;139.698;2023-08-06T05:30:12;100114.00;;;29.24;55.82
53659;BME280;41524;35.624;139.698;2023-08-06T05:35:12;100116.00;;;28.86;56.63
53659;BME280;41524;35.624;139.698;2023-08-06T05:40:11;100124.00;;;27.49;59.01
53659;BME280;41524;35.624;139.698;2023-08-06T05:45:11;100117.00;;;27.26;61.47
53659;BME280;41524;35.624;139.698;2023-08-06T05:50:11;100140.00;;;26.56;63.64
53659;BME280;41524;35.624;139.698;2023-08-06T05:55:11;100133.00;;;27.36;66.66
53659;BME280;41524;35.624;139.698;2023-08-06T06:00:12;100143.00;;;27.10;66.86
53659;BME280;41524;35.624;139.698;2023-08-06T06:05:10;100128.00;;;27.68;65.66
53659;BME280;41524;35.624;139.698;2023-08-06T06:10:11;100134.00;;;29.15;61.20
53659;BME280;41524;35.624;139.698;2023-08-06T06:15:11;100141.00;;;28.05;61.67
53659;BME280;41524;35.624;139.698;2023-08-06T06:20:11;100142.00;;;28.10;61.39
53659;BME280;41524;35.624;139.698;2023-08-06T06:25:10;100143.00;;;28.63;60.54
53659;BME280;41524;35.624;139.698;2023-08-06T06:30:11;100138.00;;;28.24;60.79
53659;BME280;41524;35.624;139.698;2023-08-06T06:35:12;100129.00;;;28.21;61.83
53659;BME280;41524;35.624;139.698;2023-08-06T06:40:11;100128.00;;;28.18;62.54
53659;BME280;41524;35.624;139.698;2023-08-06T06:45:11;100134.00;;;28.73;60.30
53659;BME280;41524;35.624;139.698;2023-08-06T06:50:11;100144.00;;;27.90;62.61
53659;BME280;41524;35.624;139.698;2023-08-06T06:55:11;100166.00;;;26.69;63.16
53659;BME280;41524;35.624;139.698;2023-08-06T07:00:12;100175.00;;;26.31;65.31
53659;BME280;41524;35.624;139.698;2023-08-06T07:05:11;100166.00;;;26.11;66.96
53659;BME280;41524;35.624;139.698;2023-08-06T07:10:11;100164.00;;;27.03;64.41
53659;BME280;41524;35.624;139.698;2023-08-06T07:15:12;100164.00;;;26.44;65.71
53659;BME280;41524;35.624;139.698;2023-08-06T07:20:11;100160.00;;;26.42;66.18
53659;BME280;41524;35.624;139.698;2023-08-06T07:25:11;100147.00;;;26.17;67.16
53659;BME280;41524;35.624;139.698;2023-08-06T07:30:11;100143.00;;;27.59;64.11
53659;BME280;41524;35.624;139.698;2023-08-06T07:35:11;100149.00;;;26.33;66.97
53659;BME280;41524;35.624;139.698;2023-08-06T07:40:11;100144.00;;;26.57;66.42
53659;BME280;41524;35.624;139.698;2023-08-06T07:45:11;100143.00;;;27.08;63.97
53659;BME280;41524;35.624;139.698;2023-08-06T07:50:11;100145.00;;;26.99;64.27
53659;BME280;41524;35.624;139.698;2023-08-06T07:55:11;100137.00;;;27.29;63.62
53659;BME280;41524;35.624;139.698;2023-08-06T08:00:12;100137.00;;;26.76;64.52
53659;BME280;41524;35.624;139.698;2023-08-06T08:05:11;100142.00;;;26.99;63.63
53659;BME280;41524;35.624;139.698;2023-08-06T08:10:10;100136.00;;;26.99;64.04
53659;BME280;41524;35.624;139.698;2023-08-06T08:15:11;100137.00;;;26.30;65.83
53659;BME280;41524;35.624;139.698;2023-08-06T08:20:11;100147.00;;;27.46;63.04
53659;BME280;41524;35.624;139.698;2023-08-06T08:25:10;100151.00;;;26.81;64.44
53659;BME280;41524;35.624;139.698;2023-08-06T08:30:12;100157.00;;;26.13;65.79
53659;BME280;41524;35.624;139.698;2023-08-06T08:35:12;100151.00;;;28.14;62.15
53659;BME280;41524;35.624;139.698;2023-08-06T08:40:11;100147.00;;;28.36;61.26
53659;BME280;41524;35.624;139.698;2023-08-06T08:45:13;100147.00;;;27.79;62.10
53659;BME280;41524;35.624;139.698;2023-08-06T08:50:11;100148.00;;;26.97;63.76
53659;BME280;41524;35.624;139.698;2023-08-06T08:55:11;100151.00;;;28.45;61.35
53659;BME280;41524;35.624;139.698;2023-08-06T09:00:12;100156.00;;;27.94;63.27
53659;BME280;41524;35.624;139.698;2023-08-06T09:05:12;100182.00;;;27.25;64.45
53659;BME280;41524;35.624;139.698;2023-08-06T09:10:12;100187.00;;;27.08;65.57
53659;BME280;41524;35.624;139.698;2023-08-06T09:15:11;100193.00;;;27.67;63.77
53659;BME280;41524;35.624;139.698;2023-08-06T09:20:13;100198.00;;;26.38;66.46
53659;BME280;41524;35.624;139.698;2023-08-06T09:25:11;100203.00;;;27.29;63.66
53659;BME280;41524;35.624;139.698;2023-08-06T09:30:11;100207.00;;;28.07;61.07
53659;BME280;41524;35.624;139.698;2023-08-06T09:35:17;100212.00;;;26.03;67.54
53659;BME280;41524;35.624;139.698;2023-08-06T09:40:27;100207.00;;;27.60;64.80
53659;BME280;41524;35.624;139.698;2023-08-06T09:45:11;100202.00;;;27.23;66.15
53659;BME280;41524;35.624;139.698;2023-08-06T09:50:17;100196.00;;;26.64;66.45
53659;BME280;41524;35.624;139.698;2023-08-06T09:55:12;100204.00;;;27.82;64.27
53659;BME280;41524;35.624;139.698;2023-08-06T10:00:12;100212.00;;;27.46;64.34
53659;BME280;41524;35.624;139.698;2023-08-06T10:05:11;100223.00;;;25.44;69.56
53659;BME280;41524;35.624;139.698;2023-08-06T10:10:11;100226.00;;;26.35;67.93
53659;BME280;41524;35.624;139.698;2023-08-06T10:15:15;100236.00;;;25.78;69.62
53659;BME280;41524;35.624;139.698;2023-08-06T10:20:11;100248.00;;;25.69;67.68
53659;BME280;41524;35.624;139.698;2023-08-06T10:25:15;100260.00;;;26.47;65.66
53659;BME280;41524;35.624;139.698;2023-08-06T10:30:27;100260.00;;;25.29;68.60
53659;BME280;41524;35.624;139.698;2023-08-06T10:35:31;100264.00;;;26.12;66.84
53659;BME280;41524;35.624;139.698;2023-08-06T10:40:12;100266.00;;;25.55;68.72
53659;BME280;41524;35.624;139.698;2023-08-06T10:45:17;100274.00;;;26.36;67.38
53659;BME280;41524;35.624;139.698;2023-08-06T10:50:13;100276.00;;;26.41;67.41
53659;BME280;41524;35.624;139.698;2023-08-06T10:55:11;100283.00;;;26.48;67.68
53659;BME280;41524;35.624;139.698;2023-08-06T11:00:12;100291.00;;;25.73;70.18
53659;BME280;41524;35.624;139.698;2023-08-06T11:05:11;100298.00;;;26.11;69.54
53659;BME280;41524;35.624;139.698;2023-08-06T11:10:12;100304.00;;;25.63;69.85
53659;BME280;41524;35.624;139.698;2023-08-06T11:15:11;100315.00;;;25.64;70.29
53659;BME280;41524;35.624;139.698;2023-08-06T11:20:11;100317.00;;;25.40;71.73
53659;BME280;41524;35.624;139.698;2023-08-06T11:25:11;100319.00;;;25.84;70.97
53659;BME280;41524;35.624;139.698;2023-08-06T11:30:12;100319.00;;;25.90;71.96
53659;BME280;41524;35.624;139.698;2023-08-06T11:35:18;100323.00;;;26.27;70.67
53659;BME280;41524;35.624;139.698;2023-08-06T11:40:14;100325.00;;;26.46;70.01
53659;BME280;41524;35.624;139.698;2023-08-06T11:45:12;100335.00;;;27.00;69.23
53659;BME280;41524;35.624;139.698;2023-08-06T11:50:23;100340.00;;;26.76;69.38
53659;BME280;41524;35.624;139.698;2023-08-06T11:55:11;100345.00;;;27.14;67.94
53659;BME280;41524;35.624;139.698;2023-08-06T12:00:12;100347.00;;;25.84;71.04
53659;BME280;41524;35.624;139.698;2023-08-06T12:05:15;100348.00;;;25.56;72.36
53659;BME280;41524;35.624;139.698;2023-08-06T12:10:12;100353.00;;;25.24;74.07
53659;BME280;41524;35.624;139.698;2023-08-06T12:15:11;100347.00;;;26.24;71.03
53659;BME280;41524;35.624;139.698;2023-08-06T12:20:12;100349.00;;;25.78;71.31
53659;BME280;41524;35.624;139.698;2023-08-06T12:25:12;100344.00;;;26.08;70.84
53659;BME280;41524;35.624;139.698;2023-08-06T12:30:12;100351.00;;;25.61;72.09
53659;BME280;41524;35.624;139.698;2023-08-06T12:35:10;100351.00;;;25.57;72.05
53659;BME280;41524;35.624;139.698;2023-08-06T12:40:11;100346.00;;;25.81;71.40
53659;BME280;41524;35.624;139.698;2023-08-06T12:45:11;100349.00;;;26.23;69.97
53659;BME280;41524;35.624;139.698;2023-08-06T12:50:11;100353.00;;;26.42;69.29
53659;BME280;41524;35.624;139.698;2023-08-06T12:55:11;100346.00;;;25.52;69.85
53659;BME280;41524;35.624;139.698;2023-08-06T13:00:15;100355.00;;;25.75;70.40
53659;BME280;41524;35.624;139.698;2023-08-06T13:05:11;100354.00;;;25.80;71.05
53659;BME280;41524;35.624;139.698;2023-08-06T13:10:11;100349.00;;;25.47;71.62
53659;BME280;41524;35.624;139.698;2023-08-06T13:15:11;100346.00;;;25.67;71.52
53659;BME280;41524;35.624;139.698;2023-08-06T13:20:11;100341.00;;;26.46;69.63
53659;BME280;41524;35.624;139.698;2023-08-06T13:25:11;100349.00;;;26.53;69.34
53659;BME280;41524;35.624;139.698;2023-08-06T13:30:12;100364.00;;;27.04;67.56
53659;BME280;41524;35.624;139.698;2023-08-06T13:35:10;100374.00;;;25.26;71.20
53659;BME280;41524;35.624;139.698;2023-08-06T13:40:12;100375.00;;;25.19;72.41
53659;BME280;41524;35.624;139.698;2023-08-06T13:45:11;100375.00;;;25.28;72.29
53659;BME280;41524;35.624;139.698;2023-08-06T13:50:13;100366.00;;;25.75;70.97
53659;BME280;41524;35.624;139.698;2023-08-06T13:55:11;100347.00;;;25.40;71.22
53659;BME280;41524;35.624;139.698;2023-08-06T14:00:13;100347.00;;;27.02;66.62
53659;BME280;41524;35.624;139.698;2023-08-06T14:05:11;100342.00;;;24.95;71.08
53659;BME280;41524;35.624;139.698;2023-08-06T14:10:10;100334.00;;;25.83;68.81
53659;BME280;41524;35.624;139.698;2023-08-06T14:15:11;100339.00;;;24.78;71.59
53659;BME280;41524;35.624;139.698;2023-08-06T14:20:11;100338.00;;;26.76;67.19
53659;BME280;41524;35.624;139.698;2023-08-06T14:25:11;100345.00;;;26.21;68.12
53659;BME280;41524;35.624;139.698;2023-08-06T14:30:11;100343.00;;;26.95;66.04
53659;BME280;41524;35.624;139.698;2023-08-06T14:35:11;100342.00;;;25.79;68.16
53659;BME280;41524;35.624;139.698;2023-08-06T14:40:12;100342.00;;;25.15;70.56
53659;BME280;41524;35.624;139.698;2023-08-06T14:45:11;100351.00;;;25.16;70.97
53659;BME280;41524;35.624;139.698;2023-08-06T14:50:11;100353.00;;;25.27;71.30
53659;BME280;41524;35.624;139.698;2023-08-06T14:55:11;100346.00;;;25.86;70.26
53659;BME280;41524;35.624;139.698;2023-08-06T15:00:13;100341.00;;;24.86;71.98
53659;BME280;41524;35.624;139.698;2023-08-06T15:05:12;100338.00;;;26.45;69.02
53659;BME280;41524;35.624;139.698;2023-08-06T15:10:14;100330.00;;;25.79;70.01
53659;BME280;41524;35.624;139.698;2023-08-06T15:15:12;100325.00;;;24.56;72.68
53659;BME280;41524;35.624;139.698;2023-08-06T15:20:13;100327.00;;;24.98;71.85
53659;BME280;41524;35.624;139.698;2023-08-06T15:25:11;100323.00;;;25.09;71.99
53659;BME280;41524;35.624;139.698;2023-08-06T15:30:11;100331.00;;;24.77;73.71
53659;BME280;41524;35.624;139.698;2023-08-06T15:35:12;100334.00;;;24.61;73.97
53659;BME280;41524;35.624;139.698;2023-08-06T15:40:12;100337.00;;;24.60;73.88
53659;BME280;41524;35.624;139.698;2023-08-06T15:45:12;100331.00;;;24.40;74.56
53659;BME280;41524;35.624;139.698;2023-08-06T15:50:11;100323.00;;;24.73;73.63
53659;BME280;41524;35.624;139.698;2023-08-06T15:55:11;100326.00;;;24.67;74.60
53659;BME280;41524;35.624;139.698;2023-08-06T16:00:13;100319.00;;;25.33;72.53
53659;BME280;41524;35.624;139.698;2023-08-06T16:05:11;100329.00;;;25.05;73.24
53659;BME280;41524;35.624;139.698;2023-08-06T16:10:11;100333.00;;;25.06;73.67
53659;BME280;41524;35.624;139.698;2023-08-06T16:15:12;100320.00;;;25.22;73.34
53659;BME280;41524;35.624;139.698;2023-08-06T16:20:12;100308.00;;;25.68;71.84
53659;BME280;41524;35.624;139.698;2023-08-06T16:25:13;100301.00;;;24.47;75.22
53659;BME280;41524;35.624;139.698;2023-08-06T16:30:12;100311.00;;;25.53;72.77
53659;BME280;41524;35.624;139.698;2023-08-06T16:35:11;100314.00;;;25.30;72.82
53659;BME280;41524;35.624;139.698;2023-08-06T16:40:11;100316.00;;;24.91;74.39
53659;BME280;41524;35.624;139.698;2023-08-06T16:45:12;100311.00;;;24.56;76.09
53659;BME280;41524;35.624;139.698;2023-08-06T16:50:11;100304.00;;;25.75;72.97
53659;BME280;41524;35.624;139.698;2023-08-06T16:55:10;100298.00;;;25.24;73.43
53659;BME280;41524;35.624;139.698;2023-08-06T17:00:11;100297.00;;;23.79;77.52
53659;BME280;41524;35.624;139.698;2023-08-06T17:05:11;100283.00;;;25.47;73.57
53659;BME280;41524;35.624;139.698;2023-08-06T17:10:11;100289.00;;;25.55;73.16
53659;BME280;41524;35.624;139.698;2023-08-06T17:15:11;100285.00;;;25.46;72.57
53659;BME280;41524;35.624;139.698;2023-08-06T17:20:12;100287.00;;;25.51;71.98
53659;BME280;41524;35.624;139.698;2023-08-06T17:25:11;100285.00;;;25.96;71.34
53659;BME280;41524;35.624;139.698;2023-08-06T17:30:11;100280.00;;;25.50;72.27
53659;BME280;41524;35.624;139.698;2023-08-06T17:35:11;100286.00;;;25.29;72.57
53659;BME280;41524;35.624;139.698;2023-08-06T17:40:11;100289.00;;;25.86;71.06
53659;BME280;41524;35.624;139.698;2023-08-06T17:45:11;100291.00;;;25.59;72.21
53659;BME280;41524;35.624;139.698;2023-08-06T17:50:11;100295.00;;;25.29;72.78
53659;BME280;41524;35.624;139.698;2023-08-06T17:55:11;100292.00;;;26.26;70.34
53659;BME280;41524;35.624;139.698;2023-08-06T18:00:12;100287.00;;;25.42;72.21
53659;BME280;41524;35.624;139.698;2023-08-06T18:05:11;100289.00;;;24.61;74.50
53659;BME280;41524;35.624;139.698;2023-08-06T18:10:12;100290.00;;;24.92;73.99
53659;BME280;41524;35.624;139.698;2023-08-06T18:15:13;100293.00;;;24.96;73.48
53659;BME280;41524;35.624;139.698;2023-08-06T18:20:11;100304.00;;;24.68;74.75
53659;BME280;41524;35.624;139.698;2023-08-06T18:25:11;100306.00;;;24.10;76.64
53659;BME280;41524;35.624;139.698;2023-08-06T18:30:12;100307.00;;;25.31;73.32
53659;BME280;41524;35.624;139.698;2023-08-06T18:35:11;100309.00;;;24.56;75.61
53659;BME280;41524;35.624;139.698;2023-08-06T18:40:11;100312.00;;;25.32;73.94
53659;BME280;41524;35.624;139.698;2023-08-06T18:45:12;100313.00;;;24.54;76.06
53659;BME280;41524;35.624;139.698;2023-08-06T18:50:11;100313.00;;;24.69;75.92
53659;BME280;41524;35.624;139.698;2023-08-06T18:55:11;100312.00;;;24.19;77.02
53659;BME280;41524;35.624;139.698;2023-08-06T19:00:12;100304.00;;;24.43;77.09
53659;BME280;41524;35.624;139.698;2023-08-06T19:05:12;100301.00;;;25.41;74.07
53659;BME280;41524;35.624;139.698;2023-08-06T19:10:12;100303.00;;;24.43;76.87
53659;BME280;41524;35.624;139.698;2023-08-06T19:15:11;100297.00;;;24.73;76.14
53659;BME280;41524;35.624;139.698;2023-08-06T19:20:12;100299.00;;;24.05;78.10
53659;BME280;41524;35.624;139.698;2023-08-06T19:25:11;100305.00;;;25.32;74.44
53659;BME280;41524;35.624;139.698;2023-08-06T19:30:11;100307.00;;;24.43;76.59
53659;BME280;41524;35.624;139.698;2023-08-06T19:35:10;100309.00;;;25.64;73.34
53659;BME280;41524;35.624;139.698;2023-08-06T19:40:11;100311.00;;;24.41;77.28
53659;BME280;41524;35.624;139.698;2023-08-06T19:45:12;100322.00;;;25.29;74.90
53659;BME280;41524;35.624;139.698;2023-08-06T19:50:11;100325.00;;;24.96;75.09
53659;BME280;41524;35.624;139.698;2023-08-06T19:55:10;100329.00;;;25.16;74.52
53659;BME280;41524;35.624;139.698;2023-08-06T20:00:17;100335.00;;;24.43;76.70
53659;BME280;41524;35.624;139.698;2023-08-06T20:05:11;100334.00;;;25.36;73.69
53659;BME280;41524;35.624;139.698;2023-08-06T20:10:11;100340.00;;;24.76;75.00
53659;BME280;41524;35.624;139.698;2023-08-06T20:15:12;100348.00;;;25.26;73.71
53659;BME280;41524;35.624;139.698;2023-08-06T20:20:13;100359.00;;;26.96;69.53
53659;BME280;41524;35.624;139.698;2023-08-06T20:25:11;100366.00;;;25.82;71.75
53659;BME280;41524;35.624;139.698;2023-08-06T20:30:11;100371.00;;;25.75;71.56
53659;BME280;41524;35.624;139.698;2023-08-06T20:35:11;100375.00;;;25.73;71.76
53659;BME280;41524;35.624;139.698;2023-08-06T20:40:11;100376.00;;;25.63;72.20
53659;BME280;41524;35.624;139.698;2023-08-06T20:45:11;100381.00;;;25.89;71.62
53659;BME280;41524;35.624;139.698;2023-08-06T20:50:11;100389.00;;;25.10;73.51
53659;BME280;41524;35.624;139.698;2023-08-06T20:55:11;100397.00;;;24.71;74.93
53659;BME280;41524;35.624;139.698;2023-08-06T21:00:14;100395.00;;;25.54;73.08
53659;BME280;41524;35.624;139.698;2023-08-06T21:05:11;100398.00;;;25.97;72.24
53659;BME280;41524;35.624;139.698;2023-08-06T21:10:11;100406.00;;;25.94;71.96
53659;BME280;41524;35.624;139.698;2023-08-06T21:15:11;100413.00;;;25.89;71.73
53659;BME280;41524;35.624;139.698;2023-08-06T21:20:11;100412.00;;;25.89;71.21
53659;BME280;41524;35.624;139.698;2023-08-06T21:25:12;100422.00;;;26.27;70.79
53659;BME280;41524;35.624;139.698;2023-08-06T21:30:11;100423.00;;;26.27;69.47
53659;BME280;41524;35.624;139.698;2023-08-06T21:35:11;100427.00;;;25.85;70.47
53659;BME280;41524;35.624;139.698;2023-08-06T21:40:12;100437.00;;;26.10;70.61
53659;BME280;41524;35.624;139.698;2023-08-06T21:45:11;100444.00;;;27.08;67.08
53659;BME280;41524;35.624;139.698;2023-08-06T21:50:11;100453.00;;;25.96;70.09
53659;BME280;41524;35.624;139.698;2023-08-06T21:55:10;100449.00;;;25.98;69.62
53659;BME280;41524;35.624;139.698;2023-08-06T22:00:12;100456.00;;;27.10;66.88
53659;BME280;41524;35.624;139.698;2023-08-06T22:05:11;100462.00;;;26.97;67.46
53659;BME280;41524;35.624;139.698;2023-08-06T22:10:11;100464.00;;;25.94;70.04
53659;BME280;41524;35.624;139.698;2023-08-06T22:15:11;100464.00;;;26.26;68.83
53659;BME280;41524;35.624;139.698;2023-08-06T22:20:11;100465.00;;;26.16;69.74
53659;BME280;41524;35.624;139.698;2023-08-06T22:25:11;100465.00;;;25.82;71.79
53659;BME280;41524;35.624;139.698;2023-08-06T22:30:12;100468.00;;;26.48;69.84
53659;BME280;41524;35.624;139.698;2023-08-06T22:35:12;100468.00;;;26.67;69.30
53659;BME280;41524;35.624;139.698;2023-08-06T22:40:12;100468.00;;;27.31;66.54
53659;BME280;41524;35.624;139.698;2023-08-06T22:45:12;100468.00;;;26.46;69.25
53659;BME280;41524;35.624;139.698;2023-08-06T22:50:11;100472.00;;;26.48;69.27
53659;BME280;41524;35.624;139.698;2023-08-06T22:55:11;100475.00;;;26.08;69.66
53659;BME280;41524;35.624;139.698;2023-08-06T23:00:12;100481.00;;;26.46;69.64
53659;BME280;41524;35.624;139.698;2023-08-06T23:05:11;100478.00;;;27.24;66.96
53659;BME280;41524;35.624;139.698;2023-08-06T23:10:11;100475.00;;;26.79;66.31
53659;BME280;41524;35.624;139.698;2023-08-06T23:15:12;100471.00;;;25.89;68.93
53659;BME280;41524;35.624;139.698;2023-08-06T23:20:12;100479.00;;;26.31;68.53
53659;BME280;41524;35.624;139.698;2023-08-06T23:25:11;100484.00;;;27.54;64.78
53659;BME280;41524;35.624;139.698;2023-08-06T23:30:13;100495.00;;;27.07;65.84
53659;BME280;41524;35.624;139.698;2023-08-06T23:35:11;100494.00;;;25.80;68.70
53659;BME280;41524;35.624;139.698;2023-08-06T23:40:12;100490.00;;;26.84;66.76
53659;BME280;41524;35.624;139.698;2023-08-06T23:45:11;100491.00;;;26.82;66.65
53659;BME280;41524;35.624;139.698;2023-08-06T23:50:12;100491.00;;;28.18;63.21
53659;BME280;41524;35.624;139.698;2023-08-06T23:55:11;100497.00;;;27.57;63.26
